createdAt,value
2022-09-03T00:00:43.305Z,51.04
2022-09-03T00:03:23.370Z,51.05
2022-09-03T00:06:08.422Z,50.92
2022-09-03T00:08:42.897Z,51.01
2022-09-03T00:11:18.954Z,51.46
2022-09-03T00:13:54.063Z,51.64
2022-09-03T00:16:29.646Z,51.34
2022-09-03T00:19:02.781Z,51.36
2022-09-03T00:21:42.657Z,51.21
2022-09-03T00:24:16.709Z,51.45
2022-09-03T00:26:49.395Z,51.43
2022-09-03T00:29:23.896Z,51.58
2022-09-03T00:31:57.680Z,52.23
2022-09-03T00:34:32.609Z,52.35
2022-09-03T00:37:05.444Z,52.35
2022-09-03T00:39:36.142Z,52.46
2022-09-03T00:42:21.621Z,52.70
2022-09-03T00:45:06.461Z,52.78
2022-09-03T00:47:45.789Z,52.54
2022-09-03T00:50:23.654Z,52.77
2022-09-03T00:53:03.574Z,53.36
2022-09-03T00:55:47.425Z,53.33
2022-09-03T00:58:53.033Z,54.34
2022-09-03T01:01:28.060Z,54.68
2022-09-03T01:04:10.325Z,54.51
2022-09-03T01:06:48.254Z,55.37
2022-09-03T01:09:44.304Z,55.08
2022-09-03T01:12:22.262Z,55.47
2022-09-03T01:15:02.176Z,55.89
2022-09-03T01:17:46.114Z,55.24
2022-09-03T01:20:37.837Z,55.38
2022-09-03T01:23:42.417Z,55.33
2022-09-03T01:26:40.835Z,55.65
2022-09-03T01:29:22.271Z,55.86
2022-09-03T01:32:02.919Z,55.84
2022-09-03T01:34:45.805Z,55.85
2022-09-03T01:37:23.549Z,56.17
2022-09-03T01:40:04.890Z,56.20
2022-09-03T01:42:43.940Z,56.52
2022-09-03T01:45:40.385Z,56.58
2022-09-03T01:48:35.491Z,56.99
2022-09-03T01:51:13.751Z,56.92
2022-09-03T01:54:06.025Z,56.71
2022-09-03T01:56:59.382Z,57.08
2022-09-03T01:59:34.307Z,57.48
2022-09-03T02:02:11.028Z,57.27
2022-09-03T02:04:40.787Z,57.46
2022-09-03T02:07:10.574Z,57.52
2022-09-03T02:09:40.234Z,58.23
2022-09-03T02:12:15.774Z,58.11
2022-09-03T02:14:45.922Z,58.32
2022-09-03T02:17:18.420Z,57.99
2022-09-03T02:19:48.241Z,57.54
2022-09-03T02:22:17.971Z,57.93
2022-09-03T02:24:47.678Z,57.93
2022-09-03T02:27:18.045Z,58.01
2022-09-03T02:29:47.731Z,58.01
2022-09-03T02:32:20.049Z,58.02
2022-09-03T02:34:49.761Z,58.10
2022-09-03T02:37:21.371Z,58.11
2022-09-03T02:39:52.112Z,58.37
2022-09-03T02:42:22.201Z,58.29
2022-09-03T02:44:56.339Z,58.29
2022-09-03T02:47:33.990Z,58.78
2022-09-03T02:50:03.638Z,58.78
2022-09-03T02:52:33.308Z,58.96
2022-09-03T02:55:03.003Z,59.50
2022-09-03T02:57:32.690Z,59.48
2022-09-03T03:00:02.332Z,59.61
2022-09-03T03:02:34.621Z,59.39
2022-09-03T03:05:04.485Z,59.59
2022-09-03T03:07:39.653Z,59.86
2022-09-03T03:10:10.730Z,60.06
2022-09-03T03:12:40.397Z,60.07
2022-09-03T03:15:10.676Z,60.16
2022-09-03T03:17:42.956Z,60.09
2022-09-03T03:20:13.561Z,60.18
2022-09-03T03:22:43.237Z,60.42
2022-09-03T03:25:13.016Z,60.53
2022-09-03T03:27:43.384Z,60.63
2022-09-03T03:30:14.966Z,60.54
2022-09-03T03:32:47.400Z,60.19
2022-09-03T03:35:17.282Z,60.11
2022-09-03T03:37:46.966Z,60.05
2022-09-03T03:40:17.073Z,60.11
2022-09-03T03:42:46.838Z,59.84
2022-09-03T03:45:16.542Z,60.73
2022-09-03T03:47:48.866Z,60.18
2022-09-03T03:50:19.412Z,60.50
2022-09-03T03:52:49.062Z,60.86
2022-09-03T03:55:18.828Z,61.22
2022-09-03T03:57:48.510Z,61.46
2022-09-03T04:00:19.381Z,61.42
2022-09-03T04:02:51.687Z,62.13
2022-09-03T04:05:23.185Z,62.46
2022-09-03T04:07:53.743Z,62.36
2022-09-03T04:10:23.422Z,62.67
2022-09-03T04:12:56.666Z,62.40
2022-09-03T04:15:26.332Z,62.60
2022-09-03T04:18:00.703Z,62.69
2022-09-03T04:20:31.023Z,62.62
2022-09-03T04:23:03.512Z,62.72
2022-09-03T04:25:33.718Z,62.35
2022-09-03T04:28:03.929Z,62.67
2022-09-03T04:30:33.699Z,62.55
2022-09-03T04:33:06.485Z,62.61
2022-09-03T04:35:45.883Z,62.89
2022-09-03T04:38:15.664Z,62.57
2022-09-03T04:40:45.766Z,63.02
2022-09-03T04:43:15.435Z,63.14
2022-09-03T04:45:45.170Z,63.29
2022-09-03T04:48:17.478Z,63.49
2022-09-03T04:50:47.174Z,63.82
2022-09-03T04:53:16.971Z,63.84
2022-09-03T04:55:46.642Z,63.72
2022-09-03T04:58:16.336Z,63.37
2022-09-03T05:00:46.158Z,63.24
2022-09-03T05:03:18.453Z,63.27
2022-09-03T05:05:55.160Z,63.27
2022-09-03T05:08:25.914Z,63.38
2022-09-03T05:11:01.975Z,62.72
2022-09-03T05:13:31.665Z,63.36
2022-09-03T05:16:05.948Z,63.29
2022-09-03T05:18:38.593Z,63.30
2022-09-03T05:21:09.751Z,63.77
2022-09-03T05:23:40.604Z,63.83
2022-09-03T05:26:12.530Z,63.84
2022-09-03T05:28:43.813Z,63.43
2022-09-03T05:31:15.784Z,63.73
2022-09-03T05:33:50.031Z,63.59
2022-09-03T05:36:22.382Z,63.52
2022-09-03T05:38:54.247Z,63.56
2022-09-03T05:41:24.949Z,63.12
2022-09-03T05:43:56.763Z,62.76
2022-09-03T05:46:30.259Z,62.09
2022-09-03T05:49:03.897Z,62.29
2022-09-03T05:51:34.553Z,62.40
2022-09-03T05:54:05.407Z,61.12
2022-09-03T05:56:36.302Z,60.97
2022-09-03T05:59:09.388Z,60.93
2022-09-03T06:01:40.357Z,61.18
2022-09-03T06:04:14.349Z,60.64
2022-09-03T06:06:46.206Z,60.46
2022-09-03T06:09:18.177Z,59.76
2022-09-03T06:11:50.145Z,59.49
2022-09-03T06:14:20.841Z,58.56
2022-09-03T06:16:53.092Z,58.45
2022-09-03T06:19:25.653Z,57.31
2022-09-03T06:21:55.478Z,57.98
2022-09-03T06:24:27.970Z,58.50
2022-09-03T06:26:58.315Z,57.40
2022-09-03T06:29:29.085Z,57.64
2022-09-03T06:31:59.594Z,56.75
2022-09-03T06:34:31.969Z,55.46
2022-09-03T06:37:01.805Z,54.82
2022-09-03T06:39:31.713Z,55.67
2022-09-03T06:42:01.490Z,56.07
2022-09-03T06:44:38.301Z,56.09
2022-09-03T06:47:08.267Z,55.99
2022-09-03T06:49:40.766Z,55.65
2022-09-03T06:52:10.716Z,55.79
2022-09-03T06:54:41.430Z,55.50
2022-09-03T06:57:11.089Z,56.19
2022-09-03T06:59:40.812Z,56.59
2022-09-03T07:02:10.651Z,57.18
2022-09-03T07:04:44.220Z,57.76
2022-09-03T07:07:14.150Z,57.90
2022-09-03T07:09:47.735Z,58.35
2022-09-03T07:12:19.372Z,58.40
2022-09-03T07:14:51.104Z,58.32
2022-09-03T07:17:21.047Z,58.48
2022-09-03T07:19:53.365Z,58.16
2022-09-03T07:22:23.059Z,58.48
2022-09-03T07:25:02.080Z,58.09
2022-09-03T07:27:31.780Z,57.56
2022-09-03T07:30:03.541Z,57.00
2022-09-03T07:32:33.278Z,57.02
2022-09-03T07:35:05.630Z,57.47
2022-09-03T07:37:36.413Z,56.81
2022-09-03T07:40:07.006Z,57.13
2022-09-03T07:42:38.525Z,57.44
2022-09-03T07:45:10.831Z,57.15
2022-09-03T07:47:40.993Z,56.91
2022-09-03T07:50:16.283Z,55.99
2022-09-03T07:52:46.022Z,56.14
2022-09-03T07:55:16.199Z,56.00
2022-09-03T07:57:45.946Z,56.26
2022-09-03T08:00:17.855Z,56.28
2022-09-03T08:02:47.609Z,56.02
2022-09-03T08:05:21.459Z,55.86
2022-09-03T08:07:51.446Z,56.17
2022-09-03T08:10:22.767Z,55.97
2022-09-03T08:12:52.502Z,55.93
2022-09-03T08:15:22.245Z,56.53
2022-09-03T08:17:52.200Z,55.67
2022-09-03T08:20:24.522Z,55.29
2022-09-03T08:22:54.211Z,55.45
2022-09-03T08:25:23.955Z,54.66
2022-09-03T08:27:54.146Z,54.83
2022-09-03T08:30:25.123Z,54.91
2022-09-03T08:32:54.903Z,54.15
2022-09-03T08:35:27.234Z,54.19
2022-09-03T08:37:57.140Z,53.86
2022-09-03T08:40:27.163Z,53.85
2022-09-03T08:43:11.537Z,53.21
2022-09-03T08:45:42.110Z,53.59
2022-09-03T08:48:16.846Z,53.11
2022-09-03T08:50:59.247Z,52.65
2022-09-03T08:53:38.497Z,52.65
2022-09-03T08:56:13.165Z,51.77
2022-09-03T08:58:44.929Z,51.73
2022-09-03T09:01:24.946Z,51.17
2022-09-03T09:04:08.002Z,51.42
2022-09-03T09:06:48.957Z,50.48
2022-09-03T09:09:28.078Z,50.31
2022-09-03T09:12:08.008Z,50.30
2022-09-03T09:14:42.693Z,50.39
2022-09-03T09:17:31.256Z,49.96
2022-09-03T09:20:10.199Z,49.94
2022-09-03T09:22:47.332Z,50.27
2022-09-03T09:25:20.771Z,49.88
2022-09-03T09:27:56.151Z,48.79
2022-09-03T09:30:25.921Z,48.49
2022-09-03T09:32:56.257Z,48.28
2022-09-03T09:35:27.023Z,47.80
2022-09-03T09:38:01.100Z,47.56
2022-09-03T09:40:36.032Z,47.41
2022-09-03T09:43:07.759Z,47.77
2022-09-03T09:45:40.103Z,47.20
2022-09-03T09:48:20.610Z,46.88
2022-09-03T09:50:50.473Z,46.76
2022-09-03T09:53:22.840Z,46.74
2022-09-03T09:55:55.028Z,45.99
2022-09-03T09:58:26.537Z,46.23
2022-09-03T10:01:08.250Z,45.67
2022-09-03T10:03:38.321Z,46.12
2022-09-03T10:06:23.052Z,45.65
2022-09-03T10:08:56.103Z,45.72
2022-09-03T10:11:27.975Z,45.97
2022-09-03T10:14:00.872Z,45.47
2022-09-03T10:16:36.660Z,45.28
2022-09-03T10:19:14.814Z,44.87
2022-09-03T10:21:49.933Z,44.44
2022-09-03T10:24:39.622Z,44.37
2022-09-03T10:27:15.618Z,44.28
2022-09-03T10:29:45.629Z,44.43
2022-09-03T10:32:37.953Z,43.75
2022-09-03T10:35:21.877Z,43.85
2022-09-03T10:37:58.133Z,43.55
2022-09-03T10:40:38.045Z,43.44
2022-09-03T10:43:32.645Z,43.09
2022-09-03T10:46:06.604Z,43.27
2022-09-03T10:49:02.923Z,43.83
2022-09-03T10:51:38.179Z,43.10
2022-09-03T10:54:24.374Z,43.33
2022-09-03T10:57:06.215Z,42.65
2022-09-03T10:59:51.331Z,43.05
2022-09-03T11:02:36.384Z,42.86
2022-09-03T11:05:10.421Z,43.15
2022-09-03T11:07:45.172Z,42.63
2022-09-03T11:10:21.390Z,42.37
2022-09-03T11:13:05.522Z,42.91
2022-09-03T11:15:41.679Z,43.45
2022-09-03T11:18:19.752Z,42.12
2022-09-03T11:20:53.725Z,41.80
2022-09-03T11:23:31.980Z,42.09
2022-09-03T11:26:05.779Z,41.67
2022-09-03T11:28:46.971Z,41.14
2022-09-03T11:31:26.911Z,41.06
2022-09-03T11:34:02.936Z,41.67
2022-09-03T11:36:44.738Z,40.94
2022-09-03T11:39:25.224Z,40.57
2022-09-03T11:42:07.196Z,40.99
2022-09-03T11:44:51.629Z,41.08
2022-09-03T11:47:26.248Z,40.29
2022-09-03T11:50:10.200Z,41.19
2022-09-03T11:52:42.292Z,40.53
2022-09-03T11:55:12.023Z,39.71
2022-09-03T11:57:45.585Z,40.04
2022-09-03T12:00:22.726Z,39.65
2022-09-03T12:02:59.373Z,40.23
2022-09-03T12:05:39.617Z,40.35
2022-09-03T12:08:39.033Z,40.56
2022-09-03T12:11:26.664Z,39.76
2022-09-03T12:14:04.895Z,39.51
2022-09-03T12:16:51.546Z,40.26
2022-09-03T12:19:30.119Z,40.01
2022-09-03T12:22:04.634Z,40.37
2022-09-03T12:24:38.310Z,40.76
2022-09-03T12:27:12.103Z,40.40
2022-09-03T12:30:00.075Z,39.54
2022-09-03T12:32:37.361Z,38.68
2022-09-03T12:38:12.023Z,38.74
2022-09-03T12:43:38.437Z,38.40
2022-09-03T12:46:17.753Z,38.42
2022-09-03T12:51:51.220Z,38.61
2022-09-03T12:54:24.348Z,38.03
2022-09-03T12:56:59.202Z,38.56
2022-09-03T12:59:32.046Z,38.49
2022-09-03T13:02:07.923Z,38.44
2022-09-03T13:04:43.054Z,37.59
2022-09-03T13:07:19.221Z,37.44
2022-09-03T13:09:50.591Z,37.71
2022-09-03T13:12:33.309Z,37.38
2022-09-03T13:15:13.156Z,37.63
2022-09-03T13:18:00.455Z,37.56
2022-09-03T13:20:50.730Z,38.00
2022-09-03T13:23:48.883Z,37.55
2022-09-03T13:26:30.407Z,37.54
2022-09-03T13:29:26.546Z,37.21
2022-09-03T13:32:06.358Z,37.34
2022-09-03T13:34:41.454Z,37.63
2022-09-03T13:37:31.381Z,37.69
2022-09-03T13:40:02.666Z,37.49
2022-09-03T13:42:39.776Z,37.39
2022-09-03T13:45:24.063Z,37.71
2022-09-03T13:48:14.721Z,37.32
2022-09-03T13:50:50.693Z,37.18
2022-09-03T13:53:43.684Z,37.90
2022-09-03T13:56:31.139Z,37.40
2022-09-03T13:59:08.731Z,36.71
2022-09-03T14:02:00.809Z,37.52
2022-09-03T14:04:37.400Z,37.85
2022-09-03T14:07:14.534Z,36.98
2022-09-03T14:09:57.230Z,37.68
2022-09-03T14:12:37.440Z,37.39
2022-09-03T14:15:14.563Z,37.87
2022-09-03T14:17:49.895Z,37.32
2022-09-03T14:20:26.186Z,36.79
2022-09-03T14:23:02.217Z,36.86
2022-09-03T14:25:35.176Z,37.30
2022-09-03T14:28:23.507Z,36.71
2022-09-03T14:31:04.704Z,37.01
2022-09-03T14:33:45.595Z,37.02
2022-09-03T14:36:24.440Z,36.91
2022-09-03T14:39:26.774Z,37.12
2022-09-03T14:42:26.314Z,37.17
2022-09-03T14:45:21.403Z,36.95
2022-09-03T14:48:05.063Z,37.53
2022-09-03T14:50:55.019Z,36.94
2022-09-03T14:53:44.515Z,36.81
2022-09-03T14:56:27.662Z,36.59
2022-09-03T14:59:22.277Z,36.69
2022-09-03T15:02:09.336Z,36.65
2022-09-03T15:04:59.422Z,36.91
2022-09-03T15:07:37.558Z,36.97
2022-09-03T15:10:21.564Z,36.51
2022-09-03T15:12:54.495Z,36.91
2022-09-03T15:15:33.737Z,36.75
2022-09-03T15:18:16.493Z,36.73
2022-09-03T15:20:52.762Z,37.19
2022-09-03T15:23:44.511Z,36.59
2022-09-03T15:26:50.058Z,36.53
2022-09-03T15:29:47.571Z,36.63
2022-09-03T15:32:33.772Z,36.84
2022-09-03T15:35:19.649Z,37.16
2022-09-03T15:37:51.868Z,36.05
2022-09-03T15:40:31.579Z,35.99
2022-09-03T15:43:09.009Z,35.98
2022-09-03T15:45:43.309Z,36.22
2022-09-03T15:48:33.543Z,36.13
2022-09-03T15:51:14.977Z,36.22
2022-09-03T15:53:53.111Z,35.73
2022-09-03T15:56:28.248Z,36.29
2022-09-03T15:59:06.362Z,35.82
2022-09-03T16:01:42.253Z,36.43
2022-09-03T16:04:36.499Z,36.51
2022-09-03T16:07:13.758Z,36.12
2022-09-03T16:10:20.703Z,36.24
2022-09-03T16:12:59.703Z,35.61
2022-09-03T16:15:32.209Z,35.79
2022-09-03T16:18:09.409Z,35.74
2022-09-03T16:20:46.602Z,35.77
2022-09-03T16:23:23.950Z,35.87
2022-09-03T16:26:00.703Z,35.66
2022-09-03T16:28:35.657Z,35.95
2022-09-03T16:31:18.421Z,36.20
2022-09-03T16:33:58.623Z,36.06
2022-09-03T16:36:46.351Z,35.97
2022-09-03T16:39:28.541Z,36.00
2022-09-03T16:42:09.846Z,35.93
2022-09-03T16:44:53.772Z,36.28
2022-09-03T16:47:36.287Z,36.04
2022-09-03T16:50:16.959Z,35.90
2022-09-03T16:53:10.015Z,36.29
2022-09-03T16:55:59.134Z,36.55
2022-09-03T16:58:38.972Z,36.35
2022-09-03T17:01:21.958Z,36.13
2022-09-03T17:04:22.179Z,36.41
2022-09-03T17:07:04.897Z,36.17
2022-09-03T17:09:55.605Z,36.03
2022-09-03T17:12:34.578Z,36.64
2022-09-03T17:15:33.904Z,36.89
2022-09-03T17:18:22.851Z,36.74
2022-09-03T17:21:13.418Z,36.35
2022-09-03T17:24:04.687Z,36.61
2022-09-03T17:26:50.420Z,36.58
2022-09-03T17:29:36.176Z,36.83
2022-09-03T17:32:23.398Z,37.02
2022-09-03T17:35:08.698Z,37.37
2022-09-03T17:37:53.027Z,36.76
2022-09-03T17:40:31.366Z,36.71
2022-09-03T17:43:15.318Z,37.50
2022-09-03T17:45:54.668Z,37.09
2022-09-03T17:48:47.255Z,37.19
2022-09-03T17:51:32.525Z,37.53
2022-09-03T17:54:08.821Z,37.46
2022-09-03T17:56:48.132Z,37.12
2022-09-03T17:59:39.225Z,37.16
2022-09-03T18:02:20.607Z,37.59
2022-09-03T18:04:59.020Z,37.81
2022-09-03T18:07:34.131Z,37.56
2022-09-03T18:10:18.900Z,37.56
2022-09-03T18:13:03.153Z,38.02
2022-09-03T18:15:42.273Z,37.64
2022-09-03T18:18:19.017Z,38.11
2022-09-03T18:21:24.063Z,38.05
2022-09-03T18:24:15.234Z,38.09
2022-09-03T18:27:03.010Z,38.51
2022-09-03T18:29:54.467Z,38.22
2022-09-03T18:32:40.476Z,38.61
2022-09-03T18:35:24.403Z,38.33
2022-09-03T18:38:08.867Z,38.79
2022-09-03T18:41:01.312Z,38.30
2022-09-03T18:43:56.887Z,39.08
2022-09-03T18:48:00.913Z,38.72
2022-09-03T18:50:03.070Z,39.15
2022-09-03T18:52:53.691Z,39.08
2022-09-03T18:55:51.446Z,39.47
2022-09-03T18:58:48.018Z,39.25
2022-09-03T19:01:45.826Z,39.41
2022-09-03T19:04:36.236Z,39.99
2022-09-03T19:07:26.429Z,39.68
2022-09-03T19:10:16.953Z,40.29
2022-09-03T19:13:13.033Z,40.37
2022-09-03T19:16:02.518Z,40.57
2022-09-03T19:19:10.822Z,40.43
2022-09-03T19:22:01.373Z,40.41
2022-09-03T19:24:46.520Z,40.44
2022-09-03T19:27:55.333Z,40.64
2022-09-03T19:30:50.591Z,40.74
2022-09-03T19:33:44.234Z,41.02
2022-09-03T19:36:37.037Z,40.76
2022-09-03T19:39:37.270Z,40.63
2022-09-03T19:42:34.076Z,41.23
2022-09-03T19:45:27.535Z,41.04
2022-09-03T19:48:20.815Z,41.05
2022-09-03T19:51:19.651Z,41.31
2022-09-03T19:54:04.062Z,41.06
2022-09-03T19:56:51.706Z,41.85
2022-09-03T19:59:48.923Z,42.20
2022-09-03T20:02:31.387Z,41.92
2022-09-03T20:05:15.479Z,42.59
2022-09-03T20:08:00.342Z,42.56
2022-09-03T20:10:34.805Z,42.14
2022-09-03T20:13:13.448Z,42.38
2022-09-03T20:15:56.137Z,42.37
2022-09-03T20:18:39.123Z,42.67
2022-09-03T20:21:15.701Z,42.53
2022-09-03T20:23:54.071Z,42.25
2022-09-03T20:26:43.102Z,42.35
2022-09-03T20:29:34.948Z,42.86
2022-09-03T20:32:14.402Z,43.07
2022-09-03T20:34:54.188Z,43.42
2022-09-03T20:37:36.236Z,43.27
2022-09-03T20:40:25.691Z,43.05
2022-09-03T20:43:14.326Z,43.04
2022-09-03T20:46:01.019Z,43.28
2022-09-03T20:48:40.533Z,43.67
2022-09-03T20:51:16.216Z,43.74
2022-09-03T20:54:17.052Z,43.71
2022-09-03T20:57:10.741Z,43.83
2022-09-03T20:59:55.437Z,43.79
2022-09-03T21:02:39.310Z,43.84
2022-09-03T21:05:20.205Z,43.99
2022-09-03T21:08:03.851Z,43.95
2022-09-03T21:10:39.616Z,43.88
2022-09-03T21:13:16.907Z,44.39
2022-09-03T21:15:57.191Z,44.78
2022-09-03T21:18:37.842Z,44.84
2022-09-03T21:21:22.118Z,45.30
2022-09-03T21:24:03.421Z,45.19
2022-09-03T21:26:41.846Z,45.53
2022-09-03T21:29:22.404Z,45.68
2022-09-03T21:31:57.511Z,46.20
2022-09-03T21:34:33.447Z,45.76
2022-09-03T21:37:08.564Z,46.42
2022-09-03T21:39:45.392Z,46.24
2022-09-03T21:42:25.039Z,45.97
2022-09-03T21:45:03.322Z,46.11
2022-09-03T21:47:36.692Z,46.43
2022-09-03T21:50:19.803Z,46.72
2022-09-03T21:52:57.313Z,47.46
2022-09-03T21:55:38.429Z,47.33
2022-09-03T21:58:21.734Z,47.11
2022-09-03T22:00:53.842Z,47.56
2022-09-03T22:03:24.321Z,47.45
2022-09-03T22:06:01.977Z,47.58
2022-09-03T22:08:42.187Z,48.05
2022-09-03T22:11:18.492Z,48.46
2022-09-03T22:13:54.459Z,48.66
2022-09-03T22:16:31.664Z,48.49
2022-09-03T22:19:02.410Z,48.75
2022-09-03T22:21:38.897Z,49.07
2022-09-03T22:24:23.275Z,49.24
2022-09-03T22:27:01.018Z,49.19
2022-09-03T22:29:38.444Z,49.66
2022-09-03T22:32:23.209Z,49.56
2022-09-03T22:35:12.512Z,49.62
2022-09-03T22:37:58.781Z,49.43
2022-09-03T22:40:39.943Z,49.75
2022-09-03T22:43:31.080Z,49.69
2022-09-03T22:46:11.589Z,50.00
2022-09-03T22:48:59.987Z,50.09
2022-09-03T22:51:39.678Z,50.23
2022-09-03T22:54:23.480Z,50.79
2022-09-03T22:56:58.348Z,50.70
2022-09-03T22:59:34.501Z,50.67
2022-09-03T23:02:12.429Z,51.42
2022-09-03T23:04:49.269Z,51.32
2022-09-03T23:07:24.962Z,51.05
2022-09-03T23:10:00.660Z,51.72
2022-09-03T23:12:39.826Z,51.98
2022-09-03T23:15:14.178Z,52.52
2022-09-03T23:17:48.902Z,52.61
2022-09-03T23:20:23.084Z,52.54
2022-09-03T23:22:59.881Z,52.70
2022-09-03T23:25:36.140Z,52.71
2022-09-03T23:28:13.625Z,52.77
2022-09-03T23:30:43.330Z,52.79
2022-09-03T23:33:12.995Z,52.55
2022-09-03T23:35:56.039Z,52.76
2022-09-03T23:38:34.948Z,53.08
2022-09-03T23:41:09.059Z,53.13
2022-09-03T23:44:04.367Z,53.75
2022-09-03T23:46:41.072Z,54.47
2022-09-03T23:49:33.854Z,54.17
2022-09-03T23:52:30.061Z,53.78
2022-09-03T23:55:08.221Z,53.83
2022-09-03T23:57:42.474Z,53.87
